»·PEaware :: N800DW KAVX-KIFP

N800DW :: KAVX-KIFP

FLIGHT INFORMATION

Flight Status: Arrived
Operator: Privately registered:
United States
More flights under this callsign
Pilot: Scott L. (17677)
Aircraft: Unknown
(PIPA)
More flights by this aircraft type
Origin: KAVX Catalina
United States
Destination: KIFP Laughlin/Bullhead Intl
United States
More flights between these airports :: More routes between these airports
Route: SXC V21 HEC V210 GFS
File this flight plan on PilotEdge
Remarks:
Altitude:
(Current/Filed)
11,000ft
Speed:
(Current/Filed)
185kts
Departed: 28-May-19 12:48 PM
Arrived: 28-May-19 02:10 PM
Distance/Time
Traveled:
218nm/1:21
Distance/Time
To Go:
Arrived

Flight Plot

Page will automatically refresh every two minutes.

Flight plan parsing failed; only flown route is shown


Map Options




Map Legend


Flown Route
Filed Route
Departure Airport
Arrival Airport
Navaid (VOR, NDB)
Fix

Horizontal Profiles

Position Reports

Time Latitude Longitude Heading Altitude Ground
Speed
28-May-19 12:34 33.403112 -118.415847 33 1552ft 0kts
28-May-19 12:35 33.403112 -118.415847 33 1552ft 0kts
28-May-19 12:36 33.403769 -118.415261 31 1552ft 7kts
28-May-19 12:37 33.404392 -118.414974 342 1552ft 0kts
28-May-19 12:38 33.404392 -118.414974 342 1552ft 0kts
28-May-19 12:39 33.404392 -118.414974 342 1552ft 0kts
28-May-19 12:40 33.404392 -118.414974 342 1552ft 0kts
28-May-19 12:41 33.404392 -118.414974 342 1552ft 0kts
28-May-19 12:42 33.404392 -118.414974 342 1552ft 0kts
28-May-19 12:43 33.404402 -118.414978 341 1552ft 1kts
28-May-19 12:44 33.405765 -118.413819 63 1552ft 8kts
28-May-19 12:45 33.407166 -118.411443 40 1552ft 0kts
28-May-19 12:46 33.407166 -118.411443 40 1552ft 0kts
28-May-19 12:47 33.402328 -118.420067 230 1766ft 86kts
28-May-19 12:48 33.385783 -118.408236 64 2884ft 120kts
28-May-19 12:49 33.415180 -118.381675 34 3923ft 144kts
28-May-19 12:50 33.448976 -118.352837 35 4931ft 152kts
28-May-19 12:51 33.482618 -118.323510 37 5912ft 153kts
28-May-19 12:52 33.516681 -118.293456 37 6913ft 150kts
28-May-19 12:53 33.550003 -118.263863 37 7911ft 147kts
28-May-19 12:55 33.582516 -118.234872 37 8910ft 143kts
28-May-19 12:56 33.613889 -118.206827 37 9905ft 138kts
28-May-19 12:57 33.643943 -118.179918 37 10895ft 132kts
28-May-19 12:58 33.678427 -118.148991 37 11014ft 174kts
28-May-19 12:59 33.719634 -118.112009 37 11010ft 190kts
28-May-19 13:00 33.762639 -118.073360 37 11009ft 195kts
28-May-19 13:01 33.801083 -118.027760 52 11007ft 195kts
28-May-19 13:02 33.834470 -117.976221 52 11005ft 196kts
28-May-19 13:03 33.868046 -117.924421 52 11003ft 196kts
28-May-19 13:04 33.901570 -117.872670 52 11022ft 195kts
28-May-19 13:05 33.935009 -117.820994 52 11028ft 195kts
28-May-19 13:06 33.968455 -117.769242 52 11031ft 196kts
28-May-19 13:07 34.001966 -117.717317 52 11032ft 196kts
28-May-19 13:08 34.035476 -117.665313 52 11031ft 196kts
28-May-19 13:09 34.069449 -117.612518 52 11029ft 202kts
28-May-19 13:10 34.104356 -117.558178 52 11027ft 205kts
28-May-19 13:11 34.139290 -117.503733 52 11027ft 205kts
28-May-19 13:12 34.174431 -117.448882 52 11027ft 206kts
28-May-19 13:12 34.203589 -117.403324 52 11014ft 206kts
28-May-19 13:14 34.244547 -117.339196 53 11009ft 206kts
28-May-19 13:15 34.279651 -117.284143 53 11012ft 206kts
28-May-19 13:15 34.308757 -117.238438 53 11039ft 205kts
28-May-19 13:16 34.343631 -117.183598 53 11040ft 206kts
28-May-19 13:18 34.384311 -117.119526 53 11037ft 206kts
28-May-19 13:18 34.413460 -117.073556 53 11034ft 206kts
28-May-19 13:19 34.448284 -117.018535 53 11032ft 204kts
28-May-19 13:21 34.488424 -116.954904 51 11027ft 203kts
28-May-19 13:21 34.516984 -116.909647 51 11022ft 202kts
28-May-19 13:22 34.551244 -116.855308 50 11018ft 202kts
28-May-19 13:23 34.585318 -116.801196 50 11018ft 202kts
28-May-19 13:24 34.619445 -116.746891 50 11018ft 202kts
28-May-19 13:25 34.653447 -116.692691 50 11017ft 202kts
28-May-19 13:26 34.687459 -116.638386 50 11017ft 201kts
28-May-19 13:27 34.721383 -116.584140 50 11017ft 201kts
28-May-19 13:28 34.755422 -116.529620 50 11017ft 201kts
28-May-19 13:29 34.787162 -116.478711 50 11017ft 201kts
28-May-19 13:30 34.809497 -116.416247 69 11017ft 204kts
28-May-19 13:31 34.826840 -116.350685 69 11025ft 203kts
28-May-19 13:32 34.844240 -116.284869 70 11037ft 203kts
28-May-19 13:33 34.861539 -116.219315 70 11050ft 203kts
28-May-19 13:34 34.878807 -116.153726 70 11062ft 202kts
28-May-19 13:35 34.896064 -116.087983 70 11058ft 203kts
28-May-19 13:36 34.913276 -116.022273 70 11052ft 203kts
28-May-19 13:37 34.930510 -115.956333 70 11046ft 203kts
28-May-19 13:38 34.947580 -115.890858 69 11042ft 203kts
28-May-19 13:39 34.964742 -115.824872 69 11044ft 203kts
28-May-19 13:40 34.981772 -115.759224 69 11050ft 203kts
28-May-19 13:41 34.998759 -115.693589 69 11058ft 203kts
28-May-19 13:42 35.015780 -115.627641 68 11041ft 204kts
28-May-19 13:43 35.032838 -115.561404 68 11008ft 205kts
28-May-19 13:44 35.050060 -115.494365 68 10976ft 207kts
28-May-19 13:45 35.067239 -115.427341 68 10954ft 207kts
28-May-19 13:46 35.084447 -115.360001 68 10955ft 207kts
28-May-19 13:47 35.101579 -115.292813 69 10954ft 207kts
28-May-19 13:48 35.112336 -115.250519 69 10953ft 207kts
28-May-19 13:49 35.128823 -115.185558 69 10946ft 208kts
28-May-19 13:50 35.162191 -115.130036 46 10946ft 203kts
28-May-19 13:51 35.200006 -115.074320 47 10306ft 227kts
28-May-19 13:52 35.241734 -115.012500 47 9316ft 241kts
28-May-19 13:53 35.284944 -114.948294 48 8318ft 246kts
28-May-19 13:54 35.328603 -114.883260 48 7377ft 246kts
28-May-19 13:55 35.371872 -114.818665 49 6580ft 242kts
28-May-19 13:56 35.412462 -114.757918 49 6545ft 221kts
28-May-19 13:57 35.450820 -114.700461 49 6545ft 215kts
28-May-19 13:58 35.494999 -114.664006 335 6547ft 202kts
28-May-19 13:59 35.541583 -114.697439 280 6540ft 196kts
28-May-19 14:00 35.503903 -114.705477 130 6548ft 211kts
28-May-19 14:01 35.461920 -114.656666 156 6418ft 214kts
28-May-19 14:02 35.406430 -114.625750 158 5310ft 210kts
28-May-19 14:03 35.354458 -114.597781 157 3617ft 200kts
28-May-19 14:04 35.311315 -114.574592 158 3234ft 131kts
28-May-19 14:05 35.280004 -114.569453 177 3137ft 126kts
28-May-19 14:06 35.235669 -114.565632 176 1834ft 168kts
28-May-19 14:07 35.203531 -114.559832 179 1364ft 76kts
28-May-19 14:08 35.177518 -114.560901 178 1069ft 117kts
28-May-19 14:09 35.157838 -114.559573 177 704ft 32kts
28-May-19 14:10 35.156704 -114.556222 80 704ft 8kts
28-May-19 14:11 35.156869 -114.555996 269 704ft 0kts
28-May-19 14:12 35.160065 -114.556062 176 704ft 0kts
28-May-19 14:13 35.160065 -114.556062 176 704ft 0kts
28-May-19 14:14 35.160065 -114.556062 176 704ft 0kts
28-May-19 14:15 35.160065 -114.556062 176 704ft 0kts
28-May-19 14:16 35.160065 -114.556062 176 704ft 0kts
28-May-19 14:17 35.160065 -114.556062 176 704ft 0kts
28-May-19 14:18 35.160065 -114.556062 176 704ft 0kts
28-May-19 14:19 35.160065 -114.556062 176 704ft 0kts
28-May-19 14:20 35.160065 -114.556062 176 704ft 0kts
28-May-19 14:21 35.160065 -114.556062 176 704ft 0kts
28-May-19 14:22 35.160065 -114.556062 176 704ft 0kts
28-May-19 14:23 35.160065 -114.556062 176 704ft 0kts

Navigation Log

Ident Type
Flight plan parsing failed, navigation log unavailable